createdAt,value
2018-12-27T12:11:04.275Z,5.40
2018-12-27T12:13:33.898Z,5.40
2018-12-27T12:16:03.580Z,5.50
2018-12-27T12:18:33.278Z,5.70
2018-12-27T12:21:02.933Z,5.50
2018-12-27T12:23:33.097Z,5.30
2018-12-27T12:26:02.851Z,5.50
2018-12-27T12:28:32.490Z,5.40
2018-12-27T12:31:02.143Z,5.60
2018-12-27T12:33:31.762Z,5.80
2018-12-27T12:36:01.748Z,5.90
2018-12-27T12:38:31.464Z,5.90
2018-12-27T12:41:01.292Z,5.50
2018-12-27T12:43:30.942Z,5.50
2018-12-27T12:46:00.605Z,5.40
2018-12-27T12:48:30.289Z,5.50
2018-12-27T12:50:59.940Z,5.60
2018-12-27T12:53:29.762Z,5.60
2018-12-27T12:55:59.429Z,5.60
2018-12-27T12:58:29.109Z,5.10
2018-12-27T13:00:58.746Z,4.70
2018-12-27T13:03:28.618Z,4.70
2018-12-27T13:05:58.272Z,4.70
2018-12-27T13:08:28.831Z,5.20
2018-12-27T13:10:58.501Z,5.20
2018-12-27T13:13:28.140Z,4.90
2018-12-27T13:15:57.787Z,5.00
2018-12-27T13:18:27.441Z,4.20
2018-12-27T13:20:57.086Z,4.30
2018-12-27T13:23:26.750Z,4.30
2018-12-27T13:25:56.452Z,4.30
2018-12-27T13:28:26.114Z,4.50
2018-12-27T13:30:55.755Z,4.60
2018-12-27T13:33:25.395Z,4.30
2018-12-27T13:35:55.044Z,4.30
2018-12-27T13:38:24.720Z,4.70
2018-12-27T13:40:54.371Z,4.40
2018-12-27T13:43:24.036Z,4.00
2018-12-27T13:45:53.778Z,4.10
2018-12-27T13:48:23.487Z,3.90
2018-12-27T13:50:53.162Z,3.70
2018-12-27T13:53:22.912Z,3.70
2018-12-27T13:55:52.694Z,3.60
2018-12-27T13:58:22.359Z,3.70
2018-12-27T14:00:52.103Z,3.70
2018-12-27T14:03:21.740Z,3.90
2018-12-27T14:05:51.427Z,4.20
2018-12-27T14:08:21.105Z,4.20
2018-12-27T14:10:50.798Z,4.30
2018-12-27T14:13:20.474Z,4.20
2018-12-27T14:15:50.133Z,4.10
2018-12-27T14:18:19.767Z,4.50
2018-12-27T14:20:49.444Z,4.30
2018-12-27T14:23:19.092Z,4.50
2018-12-27T14:25:48.753Z,4.30
2018-12-27T14:28:20.564Z,4.20
2018-12-27T14:30:50.234Z,4.10
2018-12-27T14:33:19.868Z,3.80
2018-12-27T14:35:49.549Z,3.70
2018-12-27T14:38:19.174Z,3.90
2018-12-27T14:40:48.814Z,4.20
2018-12-27T14:43:18.429Z,4.00
2018-12-27T14:45:48.083Z,4.00
2018-12-27T14:48:17.747Z,3.90
2018-12-27T14:50:47.420Z,4.00
2018-12-27T14:53:17.100Z,4.10
2018-12-27T14:55:46.751Z,3.90
2018-12-27T14:58:16.392Z,4.10
2018-12-27T15:00:46.134Z,4.40
2018-12-27T15:03:15.883Z,4.00
2018-12-27T15:05:45.534Z,3.80
2018-12-27T15:08:15.179Z,3.60
2018-12-27T15:10:44.932Z,3.90
2018-12-27T15:13:14.624Z,3.80
2018-12-27T15:15:44.362Z,3.70
2018-12-27T15:18:14.030Z,3.60
2018-12-27T15:20:43.674Z,3.50
2018-12-27T15:23:13.430Z,3.60
2018-12-27T15:25:43.134Z,3.60
2018-12-27T15:28:12.979Z,3.50
2018-12-27T15:30:44.071Z,3.50
2018-12-27T15:33:13.897Z,3.50
2018-12-27T15:35:43.684Z,3.60
2018-12-27T15:38:14.226Z,3.40
2018-12-27T15:40:47.375Z,3.50
2018-12-27T15:43:17.077Z,3.60
2018-12-27T15:45:46.731Z,3.70
2018-12-27T15:48:16.444Z,3.80
2018-12-27T15:50:46.190Z,3.70
2018-12-27T15:53:15.868Z,3.90
2018-12-27T15:55:45.535Z,4.20
2018-12-27T15:58:15.218Z,4.40
2018-12-27T16:00:44.935Z,4.60
2018-12-27T16:03:14.673Z,3.90
2018-12-27T16:05:44.398Z,3.80
2018-12-27T16:08:14.050Z,4.00
2018-12-27T16:10:43.693Z,3.80
2018-12-27T16:13:13.363Z,3.60
2018-12-27T16:15:43.012Z,3.80
2018-12-27T16:18:12.665Z,4.10
2018-12-27T16:20:42.390Z,4.20
2018-12-27T16:23:12.059Z,3.80
2018-12-27T16:25:41.813Z,3.70
2018-12-27T16:28:11.470Z,3.40
2018-12-27T16:30:44.151Z,3.30
2018-12-27T16:33:13.807Z,3.30
2018-12-27T16:35:43.463Z,3.30
2018-12-27T16:38:13.119Z,3.30
2018-12-27T16:40:42.756Z,3.30
2018-12-27T16:43:12.389Z,3.30
2018-12-27T16:45:42.071Z,3.60
2018-12-27T16:48:11.742Z,3.80
2018-12-27T16:50:41.419Z,3.60
2018-12-27T16:53:11.061Z,3.60
2018-12-27T16:55:40.737Z,3.60
2018-12-27T16:58:10.379Z,3.50
2018-12-27T17:00:40.080Z,3.40
2018-12-27T17:03:09.743Z,3.60
2018-12-27T17:05:39.410Z,3.50
2018-12-27T17:08:09.098Z,3.40
2018-12-27T17:10:38.791Z,3.30
2018-12-27T17:13:08.434Z,3.20
2018-12-27T17:15:38.111Z,3.60
2018-12-27T17:18:07.774Z,3.90
2018-12-27T17:20:37.452Z,3.80
2018-12-27T17:23:07.144Z,3.60
2018-12-27T17:25:37.049Z,3.60
2018-12-27T17:28:06.711Z,3.40
2018-12-27T17:30:36.419Z,3.10
2018-12-27T17:33:06.107Z,2.90
2018-12-27T17:35:35.831Z,2.90
2018-12-27T17:38:05.510Z,3.00
2018-12-27T17:40:35.251Z,3.00
2018-12-27T17:43:05.004Z,3.20
2018-12-27T17:45:34.741Z,3.10
2018-12-27T17:48:04.521Z,3.10
2018-12-27T17:50:34.387Z,3.10
2018-12-27T17:53:04.100Z,3.20
2018-12-27T17:55:33.772Z,3.60
2018-12-27T17:58:03.403Z,3.20
2018-12-27T18:00:33.135Z,3.30
2018-12-27T18:03:02.778Z,3.30
2018-12-27T18:05:32.546Z,3.50
2018-12-27T18:08:02.314Z,3.70
2018-12-27T18:10:32.042Z,3.80
2018-12-27T18:13:01.794Z,3.90
2018-12-27T18:15:31.608Z,3.60
2018-12-27T18:18:01.315Z,3.40
2018-12-27T18:20:31.100Z,3.40
2018-12-27T18:23:00.816Z,3.60
2018-12-27T18:25:31.196Z,3.60
2018-12-27T18:28:00.871Z,3.70
2018-12-27T18:30:30.703Z,3.70
2018-12-27T18:33:00.494Z,3.70
2018-12-27T18:35:30.433Z,3.70
2018-12-27T18:38:00.199Z,3.60
2018-12-27T18:40:29.882Z,3.70
2018-12-27T18:42:59.571Z,4.00
2018-12-27T18:45:29.334Z,3.80
2018-12-27T18:47:59.155Z,3.90
2018-12-27T18:50:28.948Z,3.80
2018-12-27T18:52:58.724Z,3.50
2018-12-27T18:55:28.447Z,3.70
2018-12-27T18:58:00.831Z,3.80
2018-12-27T19:00:29.666Z,4.00
2018-12-27T19:02:59.406Z,3.80
2018-12-27T19:05:29.216Z,3.50
2018-12-27T19:07:58.918Z,3.30
2018-12-27T19:10:28.778Z,3.10
2018-12-27T19:13:09.507Z,3.10
2018-12-27T19:15:54.864Z,3.20
2018-12-27T19:18:32.469Z,3.20
2018-12-27T19:21:17.055Z,2.80
2018-12-27T19:23:46.882Z,2.90
2018-12-27T19:26:16.698Z,3.10
2018-12-27T19:28:46.474Z,3.20
2018-12-27T19:31:16.271Z,3.20
2018-12-27T19:33:46.045Z,3.10
2018-12-27T19:36:15.994Z,2.90
2018-12-27T19:38:45.725Z,2.80
2018-12-27T19:41:15.475Z,2.70
2018-12-27T19:43:45.106Z,2.80
2018-12-27T19:46:14.798Z,2.70
2018-12-27T19:48:44.465Z,2.90
2018-12-27T19:51:14.134Z,2.90
2018-12-27T19:53:43.860Z,3.10
2018-12-27T19:56:13.651Z,3.10
2018-12-27T19:58:43.383Z,3.00
2018-12-27T20:01:13.176Z,3.30
2018-12-27T20:03:42.810Z,3.70
2018-12-27T20:06:12.486Z,3.50
2018-12-27T20:08:42.127Z,3.40
2018-12-27T20:11:11.785Z,3.20
2018-12-27T20:13:41.527Z,3.40
2018-12-27T20:16:11.295Z,3.70
2018-12-27T20:18:41.031Z,4.00
2018-12-27T20:21:14.444Z,4.00
2018-12-27T20:23:46.194Z,4.10
2018-12-27T20:26:15.071Z,3.90
2018-12-27T20:28:44.823Z,4.10
2018-12-27T20:31:16.039Z,4.30
2018-12-27T20:33:45.662Z,4.20
2018-12-27T20:36:15.319Z,4.10
2018-12-27T20:38:45.086Z,4.00
2018-12-27T20:41:14.753Z,3.50
2018-12-27T20:43:44.422Z,3.40
2018-12-27T20:46:14.054Z,3.10
2018-12-27T20:48:43.771Z,3.00
2018-12-27T20:51:13.431Z,2.90
2018-12-27T20:53:43.349Z,3.00
2018-12-27T20:56:13.011Z,2.80
2018-12-27T20:58:42.801Z,2.90
2018-12-27T21:01:12.503Z,2.80
2018-12-27T21:03:42.222Z,2.80
2018-12-27T21:06:11.946Z,3.00
2018-12-27T21:08:41.626Z,2.80
2018-12-27T21:11:11.389Z,2.70
2018-12-27T21:13:41.118Z,2.80
2018-12-27T21:16:10.884Z,2.80
2018-12-27T21:18:40.567Z,2.80
2018-12-27T21:21:10.327Z,2.60
2018-12-27T21:23:40.031Z,2.70
2018-12-27T21:26:09.771Z,2.70
2018-12-27T21:28:39.555Z,2.60
2018-12-27T21:31:09.347Z,2.30
2018-12-27T21:33:39.044Z,2.40
2018-12-27T21:36:08.741Z,2.50
2018-12-27T21:38:38.428Z,2.60
2018-12-27T21:41:08.058Z,2.50
2018-12-27T21:43:37.755Z,2.50
2018-12-27T21:46:08.607Z,2.70
2018-12-27T21:48:38.534Z,2.90
2018-12-27T21:51:08.180Z,2.90
2018-12-27T21:53:37.827Z,2.80
2018-12-27T21:56:07.570Z,2.70
2018-12-27T21:58:37.278Z,3.00
2018-12-27T22:01:06.935Z,3.30
2018-12-27T22:03:36.671Z,3.10
2018-12-27T22:06:06.359Z,3.20
2018-12-27T22:08:36.071Z,3.40
2018-12-27T22:11:05.820Z,3.60
2018-12-27T22:13:35.555Z,3.60
2018-12-27T22:16:05.376Z,3.70
2018-12-27T22:18:35.151Z,3.50
2018-12-27T22:21:04.858Z,3.70
2018-12-27T22:23:34.578Z,3.90
2018-12-27T22:26:04.229Z,4.00
2018-12-27T22:28:33.890Z,3.50
2018-12-27T22:31:03.550Z,3.10
2018-12-27T22:33:33.229Z,2.90
2018-12-27T22:36:02.884Z,3.20
2018-12-27T22:38:35.819Z,3.20
2018-12-27T22:41:03.862Z,3.10
2018-12-27T22:43:33.518Z,2.80
2018-12-27T22:46:03.181Z,3.10
2018-12-27T22:48:32.807Z,3.10
2018-12-27T22:51:02.509Z,3.10
2018-12-27T22:53:32.218Z,3.40
2018-12-27T22:56:01.856Z,3.40
2018-12-27T22:58:31.574Z,3.10
2018-12-27T23:01:01.322Z,3.10
2018-12-27T23:03:31.062Z,3.50
2018-12-27T23:06:00.734Z,3.30
2018-12-27T23:08:30.473Z,3.20
2018-12-27T23:11:00.498Z,3.00
2018-12-27T23:13:30.170Z,2.70
2018-12-27T23:15:59.997Z,2.70
2018-12-27T23:18:32.836Z,2.70
2018-12-27T23:21:02.567Z,2.40
2018-12-27T23:23:32.269Z,2.50
2018-12-27T23:26:02.010Z,2.60
2018-12-27T23:28:31.739Z,2.50
2018-12-27T23:31:01.504Z,2.50
2018-12-27T23:33:31.190Z,2.20
2018-12-27T23:36:00.889Z,2.20
2018-12-27T23:38:30.578Z,2.30
2018-12-27T23:41:00.276Z,2.20
2018-12-27T23:43:29.941Z,2.20
2018-12-27T23:45:59.571Z,2.40
2018-12-27T23:48:29.252Z,2.30
2018-12-27T23:50:59.022Z,2.60
2018-12-27T23:53:28.739Z,2.60
2018-12-27T23:55:58.358Z,2.70
2018-12-27T23:58:28.027Z,2.80
